Terminal Aerodrome Forecast
Issued by NWS Louisville, KY

Home | Current Version | Previous Version | Text Only | Print | Product List | Glossary On
Versions: 1 2 3 4 5 6 7 8 9 10 11 12 13
120
FTUS43 KLMK 091725
TAFLEX
TAF
KLEX 091725Z 0918/1018 20012G21KT P6SM -SHSN SCT025 OVC050
      TEMPO 0919/0923 3SM -SHSN BKN025
     FM100100 28010KT P6SM VCSH BKN035
     FM100500 28009KT P6SM SCT035=

USA.gov is the U.S. government's official web portal to all federal, state and local government web resources and services.